Time;durP1;ratioP1;P1;durP2;ratioP2;P2;SDS_P1;SDS_P2;PMS_P1;PMS_P2;Temp;Humidity;BMP_temperature;BMP_pressure;BME280_temperature;BME280_humidity;BME280_pressure;Samples;Min_cycle;Max_cycle;Signal;HPM_P1;HPM_P2
2022/03/21 00:01:16;;;;;;;13.63;10.75;;;;;;;;;;5051144;28;20798;-78
2022/03/21 00:03:42;;;;;;;12.60;10.15;;;;;;;;;;5049941;28;20516;-75
2022/03/21 00:06:09;;;;;;;15.00;10.50;;;;;;;;;;5052716;28;20949;-78
2022/03/21 00:08:35;;;;;;;13.50;10.80;;;;;;;;;;5055896;28;20838;-78
2022/03/21 00:11:03;;;;;;;12.10;10.15;;;;;;;;;;5054003;28;20439;-78
2022/03/21 00:13:29;;;;;;;11.73;9.98;;;;;;;;;;5055789;28;20436;-78
2022/03/21 00:15:56;;;;;;;13.23;10.63;;;;;;;;;;5054121;28;21180;-79
2022/03/21 00:18:23;;;;;;;14.40;10.80;;;;;;;;;;5044513;28;21000;-78
2022/03/21 00:20:52;;;;;;;12.50;9.90;;;;;;;;;;5054501;28;20940;-77
2022/03/21 00:23:18;;;;;;;13.37;10.50;;;;;;;;;;5054204;28;20443;-78
2022/03/21 00:25:45;;;;;;;12.35;10.02;;;;;;;;;;5057294;28;20507;-78
2022/03/21 00:28:12;;;;;;;13.63;10.00;;;;;;;;;;5047478;28;20445;-78
2022/03/21 00:30:40;;;;;;;13.25;9.75;;;;;;;;;;5054460;28;20432;-78
2022/03/21 00:33:06;;;;;;;14.77;10.70;;;;;;;;;;5053942;28;20503;-77
2022/03/21 00:35:32;;;;;;;12.57;9.97;;;;;;;;;;5053411;28;20485;-78
2022/03/21 00:37:59;;;;;;;13.30;10.30;;;;;;;;;;5057231;28;20408;-75
2022/03/21 00:40:25;;;;;;;12.85;10.45;;;;;;;;;;5054036;28;20431;-77
2022/03/21 00:42:52;;;;;;;13.20;9.98;;;;;;;;;;5053186;28;20413;-77
2022/03/21 00:45:21;;;;;;;11.18;9.60;;;;;;;;;;5059843;28;20438;-78
2022/03/21 00:47:48;;;;;;;11.40;9.40;;;;;;;;;;5057418;28;20431;-78
2022/03/21 00:50:15;;;;;;;12.32;9.60;;;;;;;;;;5059021;28;20424;-77
2022/03/21 00:52:43;;;;;;;11.50;9.85;;;;;;;;;;5057130;28;20434;-78
2022/03/21 00:55:10;;;;;;;12.93;10.23;;;;;;;;;;5058322;28;20917;-78
2022/03/21 00:57:37;;;;;;;13.45;10.65;;;;;;;;;;5057949;28;20429;-77
2022/03/21 01:00:06;;;;;;;15.05;10.30;;;;;;;;;;5056151;28;20849;-78
2022/03/21 01:02:33;;;;;;;12.73;10.10;;;;;;;;;;5055792;28;20448;-78
2022/03/21 01:04:59;;;;;;;15.63;12.60;;;;;;;;;;5058820;28;20421;-77
2022/03/21 01:07:26;;;;;;;13.27;10.20;;;;;;;;;;5058684;28;20445;-78
2022/03/21 01:09:52;;;;;;;14.45;9.93;;;;;;;;;;5055164;28;20898;-77
2022/03/21 01:12:18;;;;;;;14.82;10.88;;;;;;;;;;5058340;28;20838;-78
2022/03/21 01:14:45;;;;;;;11.40;10.05;;;;;;;;;;5058271;28;20481;-78
2022/03/21 01:17:11;;;;;;;12.85;10.30;;;;;;;;;;5055827;28;21020;-78
2022/03/21 01:19:39;;;;;;;14.03;9.70;;;;;;;;;;5050826;28;20988;-77
2022/03/21 01:22:06;;;;;;;14.00;10.45;;;;;;;;;;5056535;28;20441;-78
2022/03/21 01:24:32;;;;;;;12.18;9.77;;;;;;;;;;5056098;28;20423;-77
2022/03/21 01:26:58;;;;;;;14.55;10.93;;;;;;;;;;5056405;28;20463;-78
2022/03/21 01:29:24;;;;;;;13.85;10.35;;;;;;;;;;5056495;28;20453;-78
2022/03/21 01:31:51;;;;;;;11.82;9.98;;;;;;;;;;5057885;28;20444;-78
2022/03/21 01:34:17;;;;;;;14.63;11.40;;;;;;;;;;5060044;28;20437;-78
2022/03/21 01:36:45;;;;;;;13.88;10.80;;;;;;;;;;5058697;28;20425;-77
2022/03/21 01:39:11;;;;;;;13.47;10.50;;;;;;;;;;5055987;28;20463;-78
2022/03/21 01:41:37;;;;;;;13.23;10.20;;;;;;;;;;5057622;28;20917;-77
2022/03/21 01:44:05;;;;;;;12.23;10.93;;;;;;;;;;5056298;28;20429;-77
2022/03/21 01:46:31;;;;;;;15.48;10.63;;;;;;;;;;5058114;28;20459;-78
2022/03/21 01:48:58;;;;;;;14.73;11.10;;;;;;;;;;5057521;28;20437;-77
2022/03/21 01:51:25;;;;;;;13.95;10.75;;;;;;;;;;5055854;28;21373;-77
2022/03/21 01:56:38;;;;;;;15.35;10.82;;;;;;;;;;5054299;28;20924;-77
2022/03/21 01:59:05;;;;;;;13.77;10.57;;;;;;;;;;5052243;28;20922;-78
2022/03/21 02:01:31;;;;;;;12.80;10.30;;;;;;;;;;5047011;28;20440;-78
2022/03/21 02:03:57;;;;;;;13.18;10.80;;;;;;;;;;5079537;22;20869;-85
2022/03/21 02:06:25;;;;;;;14.23;10.45;;;;;;;;;;5061137;28;20433;-85
2022/03/21 02:08:51;;;;;;;14.70;10.38;;;;;;;;;;5058941;28;20501;-84
2022/03/21 02:11:19;;;;;;;14.73;10.93;;;;;;;;;;5058358;28;20796;-85
2022/03/21 02:13:46;;;;;;;14.50;11.10;;;;;;;;;;5055128;28;20492;-86
2022/03/21 02:16:12;;;;;;;16.05;10.98;;;;;;;;;;5059229;28;20435;-86
2022/03/21 02:18:39;;;;;;;13.30;10.90;;;;;;;;;;5047775;28;20455;-85
2022/03/21 02:21:06;;;;;;;14.40;10.70;;;;;;;;;;5056151;28;20502;-85
2022/03/21 02:23:38;;;;;;;12.35;11.00;;;;;;;;;;5057832;28;20804;-85
2022/03/21 02:26:07;;;;;;;17.33;11.45;;;;;;;;;;5058971;28;20428;-86
2022/03/21 02:28:33;;;;;;;13.75;10.55;;;;;;;;;;5057391;28;20472;-84
2022/03/21 02:30:59;;;;;;;12.90;10.43;;;;;;;;;;5060813;28;20409;-85
2022/03/21 02:33:26;;;;;;;11.85;10.35;;;;;;;;;;5059076;28;20465;-85
2022/03/21 02:35:52;;;;;;;15.10;11.15;;;;;;;;;;5060676;28;20412;-85
2022/03/21 02:38:19;;;;;;;14.02;10.98;;;;;;;;;;5060100;28;20416;-86
2022/03/21 02:40:45;;;;;;;12.55;10.85;;;;;;;;;;5055287;28;20431;-84
2022/03/21 02:43:13;;;;;;;16.35;11.30;;;;;;;;;;5055123;28;20430;-85
2022/03/21 02:45:41;;;;;;;14.75;11.63;;;;;;;;;;5058457;28;20815;-85
2022/03/21 02:48:07;;;;;;;17.10;11.80;;;;;;;;;;5057670;28;20420;-85
2022/03/21 02:50:35;;;;;;;14.63;11.77;;;;;;;;;;5054742;28;20436;-85
2022/03/21 02:53:02;;;;;;;12.93;10.80;;;;;;;;;;5055816;28;20410;-85
2022/03/21 02:55:29;;;;;;;14.70;11.23;;;;;;;;;;5060145;28;20436;-85
2022/03/21 02:57:55;;;;;;;16.27;11.75;;;;;;;;;;5055931;28;20431;-85
2022/03/21 03:00:23;;;;;;;15.65;11.98;;;;;;;;;;5058330;28;20448;-85
2022/03/21 03:02:49;;;;;;;13.83;11.50;;;;;;;;;;5059299;28;20439;-86
2022/03/21 03:05:15;;;;;;;16.20;11.70;;;;;;;;;;5053581;28;20429;-85
2022/03/21 03:07:41;;;;;;;14.30;11.48;;;;;;;;;;5057222;28;20436;-85
2022/03/21 03:10:08;;;;;;;13.57;11.55;;;;;;;;;;5059721;28;20417;-86
2022/03/21 03:12:34;;;;;;;13.00;10.85;;;;;;;;;;5058003;28;20435;-85
2022/03/21 03:15:00;;;;;;;15.45;10.75;;;;;;;;;;5059368;28;20776;-85
2022/03/21 03:17:28;;;;;;;15.13;12.07;;;;;;;;;;5051841;28;20425;-85
2022/03/21 03:19:55;;;;;;;15.07;11.82;;;;;;;;;;5053467;28;20470;-85
2022/03/21 03:22:21;;;;;;;15.15;11.52;;;;;;;;;;5055242;28;20460;-85
2022/03/21 03:24:48;;;;;;;18.08;12.95;;;;;;;;;;5057342;28;20425;-85
2022/03/21 03:27:14;;;;;;;18.52;12.23;;;;;;;;;;5057029;28;20435;-85
2022/03/21 03:29:40;;;;;;;17.70;12.25;;;;;;;;;;5053706;28;21398;-85
2022/03/21 03:32:07;;;;;;;16.67;12.55;;;;;;;;;;5055876;28;20433;-85
2022/03/21 03:34:35;;;;;;;16.80;12.52;;;;;;;;;;5058609;28;20423;-85
2022/03/21 03:37:02;;;;;;;14.88;12.07;;;;;;;;;;5057385;28;20487;-86
2022/03/21 03:39:29;;;;;;;16.98;12.75;;;;;;;;;;5055529;28;20454;-85
2022/03/21 03:41:56;;;;;;;17.50;12.70;;;;;;;;;;5058251;28;20502;-85
2022/03/21 03:44:25;;;;;;;15.25;12.45;;;;;;;;;;5059880;28;20500;-85
2022/03/21 03:46:51;;;;;;;14.95;12.68;;;;;;;;;;5057818;28;20959;-86
2022/03/21 03:49:18;;;;;;;14.70;12.38;;;;;;;;;;5054239;28;20508;-85
2022/03/21 03:51:45;;;;;;;16.35;11.88;;;;;;;;;;5058605;28;20432;-85
2022/03/21 03:54:11;;;;;;;15.68;12.73;;;;;;;;;;5057893;28;20763;-85
2022/03/21 03:56:38;;;;;;;16.07;12.70;;;;;;;;;;5058497;28;20429;-85
2022/03/21 03:59:04;;;;;;;15.02;11.93;;;;;;;;;;5054395;28;20470;-86
2022/03/21 04:01:30;;;;;;;16.63;12.60;;;;;;;;;;5057004;28;20481;-85
2022/03/21 04:03:59;;;;;;;16.15;13.05;;;;;;;;;;5056657;28;20438;-85
2022/03/21 04:06:25;;;;;;;15.45;12.18;;;;;;;;;;5058957;28;20454;-85
2022/03/21 04:08:53;;;;;;;15.70;12.40;;;;;;;;;;5059094;28;20421;-85
2022/03/21 04:11:19;;;;;;;17.85;12.40;;;;;;;;;;5057854;28;20414;-84
2022/03/21 04:13:46;;;;;;;15.40;12.68;;;;;;;;;;5058334;28;20478;-85
2022/03/21 04:16:14;;;;;;;14.10;11.70;;;;;;;;;;5049796;28;20511;-86
2022/03/21 04:18:40;;;;;;;17.40;12.10;;;;;;;;;;5061317;28;20795;-85
2022/03/21 04:21:07;;;;;;;15.90;12.20;;;;;;;;;;5063003;28;20424;-85
2022/03/21 04:23:33;;;;;;;19.20;12.02;;;;;;;;;;5060264;28;20425;-85
2022/03/21 04:26:01;;;;;;;16.75;12.70;;;;;;;;;;5063721;28;20423;-85
2022/03/21 04:28:27;;;;;;;18.15;12.35;;;;;;;;;;5060221;28;20535;-84
2022/03/21 04:30:53;;;;;;;15.73;11.98;;;;;;;;;;5060802;28;20482;-85
2022/03/21 04:33:20;;;;;;;15.55;12.20;;;;;;;;;;5057522;28;20417;-85
2022/03/21 04:35:46;;;;;;;18.00;13.03;;;;;;;;;;5061303;28;20435;-86
2022/03/21 04:38:17;;;;;;;19.92;13.82;;;;;;;;;;5060684;28;20413;-85
2022/03/21 04:40:44;;;;;;;18.13;12.80;;;;;;;;;;5063737;28;20456;-85
2022/03/21 04:43:13;;;;;;;22.73;13.25;;;;;;;;;;5061574;28;20507;-85
2022/03/21 04:45:39;;;;;;;15.38;13.10;;;;;;;;;;5061547;28;20429;-85
2022/03/21 04:48:06;;;;;;;18.23;13.03;;;;;;;;;;5060733;28;20467;-85
2022/03/21 04:50:32;;;;;;;15.60;13.07;;;;;;;;;;5062105;28;20793;-83
2022/03/21 04:52:59;;;;;;;17.15;13.48;;;;;;;;;;5062120;28;20413;-85
2022/03/21 04:55:25;;;;;;;16.73;12.37;;;;;;;;;;5063175;28;20436;-85
2022/03/21 04:57:51;;;;;;;17.45;13.82;;;;;;;;;;5061477;28;20453;-86
2022/03/21 05:00:19;;;;;;;17.05;13.25;;;;;;;;;;5060812;28;20915;-85
2022/03/21 05:02:46;;;;;;;17.42;13.07;;;;;;;;;;5061197;28;20435;-85
2022/03/21 05:05:12;;;;;;;22.50;15.35;;;;;;;;;;5060932;28;20518;-85
2022/03/21 05:07:40;;;;;;;17.05;13.20;;;;;;;;;;5061994;28;20473;-85
2022/03/21 05:10:06;;;;;;;18.40;13.90;;;;;;;;;;5062968;28;20947;-85
2022/03/21 05:12:32;;;;;;;17.08;13.23;;;;;;;;;;5061263;28;20433;-85
2022/03/21 05:14:58;;;;;;;21.50;13.95;;;;;;;;;;5060159;28;20437;-86
2022/03/21 05:17:29;;;;;;;19.40;13.30;;;;;;;;;;5053727;28;20906;-85
2022/03/21 05:19:56;;;;;;;16.30;14.18;;;;;;;;;;5056176;28;20433;-85
2022/03/21 05:22:22;;;;;;;19.53;14.00;;;;;;;;;;5058331;28;20436;-85
2022/03/21 05:35:55;;;;;;;19.80;14.48;;;;;;;;;;5056041;28;20535;-85
2022/03/21 05:38:22;;;;;;;17.38;13.70;;;;;;;;;;5061909;28;20415;-85
2022/03/21 05:40:48;;;;;;;18.73;14.27;;;;;;;;;;5061940;28;20424;-85
2022/03/21 05:43:15;;;;;;;19.15;14.00;;;;;;;;;;5058524;28;20427;-85
2022/03/21 05:45:42;;;;;;;16.77;13.52;;;;;;;;;;5059598;28;20557;-85
2022/03/21 05:50:53;;;;;;;17.42;13.38;;;;;;;;;;5062172;28;20582;-85
2022/03/21 05:53:19;;;;;;;15.40;12.60;;;;;;;;;;5063051;28;20422;-85
2022/03/21 05:55:46;;;;;;;16.37;13.63;;;;;;;;;;5062839;28;20432;-85
2022/03/21 05:58:12;;;;;;;17.85;13.23;;;;;;;;;;5060144;28;20506;-83
2022/03/21 06:00:38;;;;;;;16.67;12.60;;;;;;;;;;5063983;28;20466;-85
2022/03/21 06:03:08;;;;;;;18.30;12.98;;;;;;;;;;5063958;28;20470;-84
2022/03/21 06:05:35;;;;;;;18.10;12.93;;;;;;;;;;5063998;28;20491;-83
2022/03/21 06:08:02;;;;;;;19.00;13.43;;;;;;;;;;5062471;28;20582;-84
2022/03/21 06:10:29;;;;;;;19.10;12.85;;;;;;;;;;5065168;28;20463;-84
2022/03/21 06:12:55;;;;;;;19.07;13.67;;;;;;;;;;5063794;28;20416;-84
2022/03/21 06:15:22;;;;;;;17.45;13.07;;;;;;;;;;5063346;28;20439;-84
2022/03/21 06:17:48;;;;;;;15.30;13.00;;;;;;;;;;5060509;28;20437;-83
2022/03/21 06:20:15;;;;;;;17.73;13.55;;;;;;;;;;5057699;28;20435;-83
2022/03/21 06:22:43;;;;;;;18.35;13.73;;;;;;;;;;5062883;28;20440;-83
2022/03/21 06:25:10;;;;;;;18.35;13.73;;;;;;;;;;5064447;28;20407;-83
2022/03/21 06:27:37;;;;;;;19.10;14.02;;;;;;;;;;5058909;28;20977;-84
2022/03/21 06:30:04;;;;;;;18.42;13.70;;;;;;;;;;5059096;28;20508;-85
2022/03/21 06:32:30;;;;;;;17.92;13.68;;;;;;;;;;5060400;28;20421;-82
2022/03/21 06:34:56;;;;;;;18.75;13.52;;;;;;;;;;5077545;28;20419;-84
2022/03/21 06:37:23;;;;;;;15.88;13.32;;;;;;;;;;5078118;28;20477;-83
2022/03/21 06:39:50;;;;;;;19.35;14.15;;;;;;;;;;5073663;28;20427;-83
2022/03/21 06:42:21;;;;;;;18.02;14.32;;;;;;;;;;5076074;28;20439;-82
2022/03/21 06:44:47;;;;;;;22.42;13.93;;;;;;;;;;5077177;28;20414;-86
2022/03/21 06:47:13;;;;;;;17.33;13.53;;;;;;;;;;5077581;28;20553;-83
2022/03/21 06:49:40;;;;;;;20.05;14.18;;;;;;;;;;5055764;28;20449;-83
2022/03/21 06:52:08;;;;;;;18.60;13.80;;;;;;;;;;5047803;28;20477;-83
2022/03/21 06:54:34;;;;;;;22.40;14.93;;;;;;;;;;5059886;28;20429;-83
2022/03/21 06:57:02;;;;;;;19.60;14.70;;;;;;;;;;5060956;28;20420;-83
2022/03/21 06:59:29;;;;;;;21.80;15.10;;;;;;;;;;5058220;28;20429;-83
2022/03/21 07:01:55;;;;;;;19.33;14.57;;;;;;;;;;5060341;28;20425;-82
2022/03/21 07:04:23;;;;;;;19.13;14.98;;;;;;;;;;5059400;28;20424;-82
2022/03/21 07:06:49;;;;;;;19.58;15.50;;;;;;;;;;5059648;28;20441;-83
2022/03/21 07:09:15;;;;;;;17.98;14.13;;;;;;;;;;5058119;28;20423;-85
2022/03/21 07:11:41;;;;;;;21.15;15.15;;;;;;;;;;5060921;28;20474;-83
2022/03/21 07:14:09;;;;;;;20.77;15.48;;;;;;;;;;5060858;28;20419;-82
2022/03/21 07:16:35;;;;;;;20.23;14.73;;;;;;;;;;5059177;28;21240;-83
2022/03/21 07:19:02;;;;;;;23.35;15.73;;;;;;;;;;5059608;28;20422;-83
2022/03/21 07:21:28;;;;;;;23.33;15.32;;;;;;;;;;5060892;28;20423;-82
2022/03/21 07:23:55;;;;;;;21.80;15.80;;;;;;;;;;5061756;28;20415;-82
2022/03/21 07:26:21;;;;;;;20.27;14.35;;;;;;;;;;5060018;28;20493;-84
2022/03/21 07:28:47;;;;;;;19.53;15.10;;;;;;;;;;5058239;28;21246;-81
2022/03/21 07:31:15;;;;;;;22.08;16.08;;;;;;;;;;5063782;28;20847;-83
2022/03/21 07:33:42;;;;;;;21.80;15.55;;;;;;;;;;5062103;28;20421;-82
2022/03/21 07:36:08;;;;;;;19.92;15.35;;;;;;;;;;5061035;28;20413;-83
2022/03/21 07:38:35;;;;;;;21.83;15.85;;;;;;;;;;5061777;28;20913;-82
2022/03/21 07:41:01;;;;;;;23.88;16.42;;;;;;;;;;5059207;28;20463;-82
2022/03/21 07:43:28;;;;;;;19.38;15.10;;;;;;;;;;5055920;28;20918;-80
2022/03/21 07:48:39;;;;;;;22.63;16.40;;;;;;;;;;5060864;28;20490;-82
2022/03/21 07:51:07;;;;;;;22.73;16.57;;;;;;;;;;5063031;28;20417;-83
2022/03/21 07:53:33;;;;;;;25.13;16.23;;;;;;;;;;5059938;28;20521;-80
2022/03/21 07:56:00;;;;;;;22.65;16.52;;;;;;;;;;5058420;28;20429;-81
2022/03/21 07:58:27;;;;;;;22.75;16.13;;;;;;;;;;5061849;28;20425;-82
2022/03/21 08:00:53;;;;;;;24.35;16.52;;;;;;;;;;5060661;28;20430;-83
2022/03/21 08:03:19;;;;;;;25.58;17.25;;;;;;;;;;5064690;28;20420;-84
2022/03/21 08:05:47;;;;;;;21.85;16.58;;;;;;;;;;5079400;22;20780;-86
2022/03/21 08:08:15;;;;;;;23.57;16.47;;;;;;;;;;5084125;28;20493;-85
2022/03/21 08:10:42;;;;;;;24.08;17.40;;;;;;;;;;5088676;28;20417;-86
2022/03/21 08:13:08;;;;;;;26.10;17.40;;;;;;;;;;5082930;28;20419;-84
2022/03/21 08:15:35;;;;;;;24.75;17.17;;;;;;;;;;5084045;28;20535;-86
2022/03/21 08:18:03;;;;;;;19.88;16.17;;;;;;;;;;5083135;28;20851;-84
2022/03/21 08:20:33;;;;;;;21.30;16.87;;;;;;;;;;5086771;28;20425;-85
2022/03/21 08:23:01;;;;;;;23.50;17.05;;;;;;;;;;5083959;28;20903;-84
2022/03/21 08:25:28;;;;;;;21.70;17.08;;;;;;;;;;5087196;28;20417;-86
2022/03/21 08:27:54;;;;;;;23.38;16.95;;;;;;;;;;5084132;28;20916;-86
2022/03/21 08:30:20;;;;;;;21.35;16.33;;;;;;;;;;5082995;28;20432;-85
2022/03/21 08:32:47;;;;;;;24.13;17.02;;;;;;;;;;5082985;28;20426;-86
2022/03/21 08:35:13;;;;;;;22.77;17.70;;;;;;;;;;5085513;28;20423;-86
2022/03/21 08:37:40;;;;;;;28.35;18.98;;;;;;;;;;5084495;28;20415;-86
2022/03/21 08:40:09;;;;;;;24.25;17.58;;;;;;;;;;5085669;28;20439;-85
2022/03/21 08:42:36;;;;;;;23.65;18.48;;;;;;;;;;5078863;28;20426;-86
2022/03/21 08:45:02;;;;;;;27.88;17.50;;;;;;;;;;5081809;28;20431;-86
2022/03/21 08:47:28;;;;;;;23.15;18.33;;;;;;;;;;5086354;28;20460;-85
2022/03/21 08:49:55;;;;;;;22.20;17.43;;;;;;;;;;5082872;28;20419;-86
2022/03/21 08:52:21;;;;;;;24.98;18.05;;;;;;;;;;5081052;28;20435;-86
2022/03/21 08:54:47;;;;;;;27.13;18.15;;;;;;;;;;5084206;28;20481;-86
2022/03/21 08:57:15;;;;;;;24.38;18.67;;;;;;;;;;5084275;28;20417;-85
2022/03/21 08:59:41;;;;;;;25.90;18.10;;;;;;;;;;5084084;28;20409;-86
2022/03/21 09:02:09;;;;;;;23.83;17.10;;;;;;;;;;5082492;28;20445;-87
2022/03/21 09:04:35;;;;;;;26.35;19.30;;;;;;;;;;5083278;28;20471;-86
2022/03/21 09:07:01;;;;;;;20.88;17.75;;;;;;;;;;5083602;28;20418;-86
2022/03/21 09:09:27;;;;;;;24.92;19.42;;;;;;;;;;5079326;28;20418;-85
2022/03/21 09:11:54;;;;;;;27.05;17.92;;;;;;;;;;5086721;28;20417;-85
2022/03/21 09:14:21;;;;;;;28.38;18.90;;;;;;;;;;5084689;28;20936;-86
2022/03/21 09:16:50;;;;;;;25.50;19.65;;;;;;;;;;5084530;28;20431;-86
2022/03/21 09:19:18;;;;;;;22.95;18.33;;;;;;;;;;5084255;28;20929;-86
2022/03/21 09:21:45;;;;;;;26.77;19.90;;;;;;;;;;5085273;28;20967;-87
2022/03/21 09:24:11;;;;;;;23.13;19.17;;;;;;;;;;5083656;28;20428;-86
2022/03/21 09:26:37;;;;;;;25.25;18.58;;;;;;;;;;5084128;28;20540;-85
2022/03/21 09:29:05;;;;;;;22.67;18.30;;;;;;;;;;5084672;28;20502;-86
2022/03/21 09:31:32;;;;;;;23.60;18.02;;;;;;;;;;5084088;28;20434;-87
2022/03/21 09:33:59;;;;;;;27.05;19.02;;;;;;;;;;5079805;28;20481;-85
2022/03/21 09:36:26;;;;;;;24.07;17.77;;;;;;;;;;5078221;28;20437;-84
2022/03/21 09:38:52;;;;;;;23.08;18.48;;;;;;;;;;5083126;28;20427;-86
2022/03/21 09:41:23;;;;;;;26.40;18.65;;;;;;;;;;5082575;28;20752;-86
2022/03/21 09:43:51;;;;;;;23.35;19.40;;;;;;;;;;5082935;28;20417;-86
2022/03/21 09:46:17;;;;;;;23.45;19.65;;;;;;;;;;5088178;28;20414;-85
2022/03/21 09:48:47;;;;;;;22.20;19.13;;;;;;;;;;5079427;28;20414;-86
2022/03/21 09:51:13;;;;;;;23.95;18.85;;;;;;;;;;5094554;28;20456;-85
2022/03/21 09:53:40;;;;;;;20.40;17.27;;;;;;;;;;5083935;28;20412;-85
2022/03/21 09:56:07;;;;;;;24.10;19.43;;;;;;;;;;5083251;28;20415;-85
2022/03/21 09:58:33;;;;;;;24.80;19.25;;;;;;;;;;5081531;28;20779;-84
2022/03/21 10:01:00;;;;;;;25.80;19.70;;;;;;;;;;5084873;28;20431;-84
2022/03/21 10:03:26;;;;;;;23.95;19.30;;;;;;;;;;5082372;28;20461;-84
2022/03/21 10:05:54;;;;;;;24.17;19.02;;;;;;;;;;5080281;28;20434;-84
2022/03/21 10:08:21;;;;;;;24.13;19.88;;;;;;;;;;5081554;28;20420;-84
2022/03/21 10:10:55;;;;;;;26.65;19.85;;;;;;;;;;5085198;28;20439;-86
2022/03/21 10:13:22;;;;;;;24.60;19.77;;;;;;;;;;5083534;28;20416;-84
2022/03/21 10:15:48;;;;;;;26.60;19.52;;;;;;;;;;5083845;28;20412;-84
2022/03/21 10:18:15;;;;;;;25.13;19.42;;;;;;;;;;5081626;28;20465;-85
2022/03/21 10:20:42;;;;;;;30.35;21.30;;;;;;;;;;5081796;28;20449;-81
2022/03/21 10:23:19;;;;;;;27.70;20.23;;;;;;;;;;5078876;28;21299;-85
2022/03/21 10:25:45;;;;;;;30.17;20.05;;;;;;;;;;5083926;28;20883;-84
2022/03/21 10:28:31;;;;;;;27.38;19.50;;;;;;;;;;5082145;28;20419;-83
2022/03/21 10:30:57;;;;;;;30.00;22.73;;;;;;;;;;5084325;28;20455;-85
2022/03/21 10:33:24;;;;;;;28.55;22.52;;;;;;;;;;5083230;28;20475;-84
2022/03/21 10:35:50;;;;;;;27.85;21.48;;;;;;;;;;5085241;28;20418;-86
2022/03/21 10:38:29;;;;;;;24.80;20.60;;;;;;;;;;5081315;28;20418;-85
2022/03/21 10:40:55;;;;;;;27.40;20.52;;;;;;;;;;5081910;28;20437;-85
2022/03/21 10:43:21;;;;;;;24.47;20.43;;;;;;;;;;5085951;28;20545;-85
2022/03/21 10:45:49;;;;;;;30.20;22.08;;;;;;;;;;5084011;28;20409;-85
2022/03/21 10:48:15;;;;;;;27.88;19.70;;;;;;;;;;5078867;28;20458;-85
2022/03/21 10:50:43;;;;;;;27.30;20.98;;;;;;;;;;5078770;28;20437;-86
2022/03/21 10:53:10;;;;;;;27.48;20.80;;;;;;;;;;5079845;28;20414;-84
2022/03/21 10:55:38;;;;;;;27.50;22.73;;;;;;;;;;5083719;28;20523;-85
2022/03/21 10:58:05;;;;;;;26.55;21.38;;;;;;;;;;5080642;28;20465;-86
2022/03/21 11:00:31;;;;;;;28.20;21.77;;;;;;;;;;5084422;28;20403;-86
2022/03/21 11:02:58;;;;;;;26.02;20.80;;;;;;;;;;5076964;28;20417;-85
2022/03/21 11:05:26;;;;;;;28.55;21.30;;;;;;;;;;5080988;28;20437;-84
2022/03/21 11:07:53;;;;;;;30.80;22.48;;;;;;;;;;5079177;28;20471;-85
2022/03/21 11:10:20;;;;;;;29.70;21.27;;;;;;;;;;5081302;28;20473;-85
2022/03/21 11:12:48;;;;;;;30.33;22.27;;;;;;;;;;5080947;28;20417;-83
2022/03/21 11:15:15;;;;;;;31.45;21.98;;;;;;;;;;5083117;28;20440;-84
2022/03/21 11:17:42;;;;;;;29.02;22.10;;;;;;;;;;5079466;28;20915;-84
2022/03/21 11:20:09;;;;;;;26.25;21.73;;;;;;;;;;5080866;28;20506;-85
2022/03/21 11:22:36;;;;;;;26.70;22.00;;;;;;;;;;5082275;28;20409;-85
2022/03/21 11:25:03;;;;;;;28.05;20.90;;;;;;;;;;5079543;28;20428;-84
2022/03/21 11:27:37;;;;;;;27.77;21.85;;;;;;;;;;5078632;28;21114;-84
2022/03/21 11:30:08;;;;;;;28.38;21.30;;;;;;;;;;5079298;28;20813;-84
2022/03/21 11:32:40;;;;;;;28.20;21.42;;;;;;;;;;5081747;28;20413;-84
2022/03/21 11:35:08;;;;;;;26.27;20.90;;;;;;;;;;5080511;28;20955;-84
2022/03/21 11:37:35;;;;;;;28.38;22.58;;;;;;;;;;5078671;28;20495;-85
2022/03/21 11:40:20;;;;;;;30.10;23.20;;;;;;;;;;5080765;28;20747;-85
2022/03/21 11:42:46;;;;;;;25.90;22.50;;;;;;;;;;5081926;28;20438;-83
2022/03/21 11:45:24;;;;;;;29.95;23.00;;;;;;;;;;5084182;28;20418;-85
2022/03/21 11:47:50;;;;;;;28.25;22.63;;;;;;;;;;5082149;28;20908;-84
2022/03/21 11:50:26;;;;;;;28.92;24.38;;;;;;;;;;5077591;28;20427;-84
2022/03/21 11:53:06;;;;;;;27.85;23.70;;;;;;;;;;5081190;28;20406;-83
2022/03/21 11:55:36;;;;;;;32.27;23.03;;;;;;;;;;5083293;28;20502;-84
2022/03/21 11:58:17;;;;;;;27.40;23.45;;;;;;;;;;5079645;28;20415;-84
2022/03/21 12:00:58;;;;;;;30.67;23.38;;;;;;;;;;5079977;28;20400;-83
2022/03/21 12:03:28;;;;;;;26.77;21.75;;;;;;;;;;5081284;28;20516;-85
2022/03/21 12:05:55;;;;;;;27.48;21.85;;;;;;;;;;5079043;28;20431;-84
2022/03/21 12:08:34;;;;;;;27.65;22.58;;;;;;;;;;5076967;28;20457;-84
2022/03/21 12:11:00;;;;;;;27.37;22.47;;;;;;;;;;5076195;28;20502;-84
2022/03/21 12:13:27;;;;;;;28.48;24.20;;;;;;;;;;5078318;28;20414;-85
2022/03/21 12:15:53;;;;;;;30.00;23.80;;;;;;;;;;5080164;28;20748;-85
2022/03/21 12:18:20;;;;;;;25.27;22.48;;;;;;;;;;5080009;28;20420;-83
2022/03/21 12:20:49;;;;;;;27.45;21.90;;;;;;;;;;5079549;28;20486;-83
2022/03/21 12:23:17;;;;;;;28.08;23.05;;;;;;;;;;5078211;28;20445;-83
2022/03/21 12:25:45;;;;;;;27.80;23.77;;;;;;;;;;5078923;28;20431;-83
2022/03/21 12:28:20;;;;;;;24.40;21.30;;;;;;;;;;5079342;28;20468;-82
2022/03/21 12:30:48;;;;;;;26.55;23.75;;;;;;;;;;5082577;28;20509;-83
2022/03/21 12:33:27;;;;;;;27.40;24.25;;;;;;;;;;5081689;28;20562;-84
2022/03/21 12:35:58;;;;;;;29.47;23.57;;;;;;;;;;5081404;28;20452;-84
2022/03/21 12:38:25;;;;;;;26.70;22.33;;;;;;;;;;5085818;28;20413;-85
2022/03/21 12:40:53;;;;;;;26.67;23.33;;;;;;;;;;5083997;28;20412;-82
2022/03/21 12:43:21;;;;;;;30.23;23.85;;;;;;;;;;5080674;28;20793;-84
2022/03/21 12:45:49;;;;;;;27.17;23.05;;;;;;;;;;5081901;28;20417;-84
2022/03/21 12:48:17;;;;;;;27.38;22.92;;;;;;;;;;5084008;28;20418;-83
2022/03/21 12:50:43;;;;;;;27.42;22.80;;;;;;;;;;5081922;28;20518;-86
2022/03/21 12:53:12;;;;;;;30.17;24.17;;;;;;;;;;5085278;28;20783;-83
2022/03/21 12:55:39;;;;;;;28.35;23.73;;;;;;;;;;5082680;28;20889;-84
2022/03/21 12:58:06;;;;;;;28.67;23.50;;;;;;;;;;5081915;28;20641;-86
2022/03/21 13:00:34;;;;;;;29.88;24.90;;;;;;;;;;5082049;28;20429;-85
2022/03/21 13:03:04;;;;;;;37.88;25.90;;;;;;;;;;5084718;28;20848;-84
2022/03/21 13:11:20;;;;;;;29.67;24.80;;;;;;;;;;5081875;28;20428;-84
2022/03/21 13:13:52;;;;;;;30.10;23.50;;;;;;;;;;5080807;28;20431;-84
2022/03/21 13:16:19;;;;;;;29.30;24.30;;;;;;;;;;5085549;28;20432;-85
2022/03/21 13:18:45;;;;;;;33.58;25.13;;;;;;;;;;5081935;28;21014;-85
2022/03/21 13:21:12;;;;;;;34.13;25.38;;;;;;;;;;5082702;28;20412;-83
2022/03/21 13:23:43;;;;;;;31.38;25.40;;;;;;;;;;5080213;28;20416;-83
2022/03/21 13:26:10;;;;;;;29.02;25.33;;;;;;;;;;5081710;28;20457;-83
2022/03/21 13:28:38;;;;;;;31.90;24.75;;;;;;;;;;5082026;28;20498;-86
2022/03/21 13:31:07;;;;;;;28.85;25.02;;;;;;;;;;5081864;28;20436;-84
2022/03/21 13:33:34;;;;;;;31.95;24.40;;;;;;;;;;5079874;28;20451;-84
2022/03/21 13:36:02;;;;;;;30.23;25.52;;;;;;;;;;5083068;28;20408;-86
2022/03/21 13:38:31;;;;;;;31.35;25.63;;;;;;;;;;5080150;28;20529;-84
2022/03/21 13:40:59;;;;;;;27.90;24.90;;;;;;;;;;5080929;28;20419;-83
2022/03/21 13:43:28;;;;;;;31.88;25.48;;;;;;;;;;5081513;28;20425;-84
2022/03/21 13:45:55;;;;;;;28.97;25.00;;;;;;;;;;5078109;28;20467;-83
2022/03/21 13:48:35;;;;;;;28.95;23.65;;;;;;;;;;5077025;28;20863;-85
2022/03/21 13:51:02;;;;;;;31.52;24.63;;;;;;;;;;5083719;28;20772;-85
2022/03/21 13:53:28;;;;;;;32.42;27.25;;;;;;;;;;5079511;28;20409;-85
2022/03/21 13:55:56;;;;;;;30.90;25.63;;;;;;;;;;5082263;28;20419;-85
2022/03/21 13:58:28;;;;;;;30.90;25.30;;;;;;;;;;5078462;28;20731;-85
2022/03/21 14:00:54;;;;;;;32.33;25.27;;;;;;;;;;5080854;28;20497;-86
2022/03/21 14:03:31;;;;;;;33.88;26.95;;;;;;;;;;5082647;28;20413;-87
2022/03/21 14:08:43;;;;;;;32.38;26.13;;;;;;;;;;5045620;26;20478;-82
2022/03/21 14:11:12;;;;;;;32.65;26.27;;;;;;;;;;5056672;28;20430;-82
2022/03/21 14:13:40;;;;;;;28.10;24.65;;;;;;;;;;5051091;28;20444;-83
2022/03/21 14:16:07;;;;;;;31.20;27.30;;;;;;;;;;5042583;28;20420;-81
2022/03/21 14:18:34;;;;;;;34.85;26.88;;;;;;;;;;5049648;28;20832;-81
2022/03/21 14:21:01;;;;;;;33.45;26.85;;;;;;;;;;5062584;28;20409;-81
2022/03/21 14:23:28;;;;;;;33.42;29.05;;;;;;;;;;5054160;28;20991;-82
2022/03/21 14:28:39;;;;;;;33.85;26.60;;;;;;;;;;5048629;28;20487;-82
2022/03/21 14:31:06;;;;;;;33.83;27.00;;;;;;;;;;5063035;28;20454;-81
2022/03/21 14:33:33;;;;;;;32.70;27.50;;;;;;;;;;5054716;28;20440;-81
2022/03/21 14:35:59;;;;;;;33.55;27.10;;;;;;;;;;5042853;28;20463;-82
2022/03/21 14:38:25;;;;;;;37.92;28.60;;;;;;;;;;5048434;28;20805;-81
2022/03/21 14:40:51;;;;;;;32.07;27.27;;;;;;;;;;5061576;28;20546;-81
2022/03/21 14:43:18;;;;;;;33.28;27.20;;;;;;;;;;5053869;28;20419;-81
2022/03/21 14:45:46;;;;;;;34.17;27.70;;;;;;;;;;5043057;28;20431;-80
2022/03/21 14:48:14;;;;;;;32.38;27.30;;;;;;;;;;5047032;28;20424;-82
2022/03/21 14:50:40;;;;;;;31.90;27.50;;;;;;;;;;5058940;28;20435;-82